ADDS METAR Data INFO
IDs: Format: Raw Decoded Include TAF

Data at: 0737 UTC 21 Jul 2018

PAWS 210656Z AUTO 00000KT 10SM CLR 15/12 A3036 RMK AO2 SLP294 T01500122
PAWS 210556Z AUTO 00000KT 10SM CLR 17/11 A3034 RMK AO2 SLP289 T01670111 10194 20167 53001
PAWS 210456Z AUTO VRB03KT 10SM CLR 18/13 A3033 RMK AO2 SLP286 T01780128
PAWS 210256Z AUTO 18003KT 10SM CLR 19/12 A3034 RMK AO2 SLP289 T01890117 56004
PAWS 210156Z AUTO VRB05KT 10SM CLR 19/12 A3034 RMK AO2 SLP290 T01890122
PAWS 210056Z AUTO 18005KT 10SM CLR 18/12 A3035 RMK AO2 SLP291 T01830122
PAWS 202356Z AUTO VRB04KT 10SM CLR 18/12 A3035 RMK AO2 SLP294 T01780122 10178 20128 58005
PAWS 202256Z AUTO VRB03KT 10SM SCT014 16/12 A3036 RMK AO2 SLP297 T01610117
PAWS 202156Z AUTO VRB05KT 10SM OVC012 16/11 A3037 RMK AO2 SLP299 T01560111
PAWS 202056Z AUTO VRB04KT 10SM OVC012 14/11 A3037 RMK AO2 SLP299 T01440106 52004
PAWS 201956Z AUTO VRB04KT 10SM OVC010 13/11 A3037 RMK AO2 SLP298 T01330106
PAWS 201934Z AUTO 24003KT 10SM OVC010 13/11 A3036 RMK AO2
PAWS 201856Z AUTO 22006KT 10SM OVC008 13/11 A3036 RMK AO2 SLP297 T01330106
PAWS 201846Z AUTO 25006KT 10SM BKN008 OVC012 13/11 A3036 RMK AO2
PAWS 201808Z AUTO 00000KT 10SM OVC012 13/11 A3036 RMK AO2
PAWS 201756Z AUTO 00000KT 10SM BKN009 OVC014 13/11 A3036 RMK AO2 SLP294 T01330106 10133 20078 53003
PAWS 201724Z AUTO 00000KT 10SM OVC007 13/11 A3036 RMK AO2 CIG 006V011
PAWS 201656Z AUTO 00000KT 10SM OVC005 12/11 A3035 RMK AO2 SLP293 T01220106
PAWS 201556Z AUTO 00000KT 9SM OVC003 11/10 A3035 RMK AO2 SLP292 T01110100
PAWS 201356Z AUTO 00000KT 10SM BKN007 08/07 A3035 RMK AO2 CIG 005V009 SLP292 T00780072
PAWS 201330Z AUTO 00000KT 10SM FEW009 08/07 A3035 RMK AO2
PAWS 201256Z AUTO 00000KT 7SM BKN009 08/07 A3035 RMK AO2 SLP291 T00780072
PAWS 201238Z AUTO 00000KT 8SM FEW009 08/08 A3034 RMK AO2
PAWS 201056Z AUTO 00000KT 10SM CLR 09/08 A3034 RMK AO2 SLP287 T00890083
PAWS 200956Z AUTO 00000KT 10SM CLR 10/09 A3033 RMK AO2 SLP286 T01000089
PAWS 200856Z AUTO 00000KT 10SM CLR 12/09 A3032 RMK AO2 SLP280 T01170094 402220094 53019
PAWS 200656Z AUTO 00000KT 10SM CLR 15/11 A3028 RMK AO2 SLP265 T01500106
PAWS 200556Z AUTO 00000KT 10SM CLR 17/11 A3026 RMK AO2 SLP261 T01720106 10222 20172 51006
PAWS 200256Z AUTO VRB03KT 10SM CLR 21/11 A3024 RMK AO2 SLP255 T02110111 55004
PAWS 200056Z AUTO VRB05KT 10SM CLR 21/11 A3025 RMK AO2 SLP257 T02110111
PAWS 192256Z AUTO 21007KT 10SM CLR 21/12 A3026 RMK AO2 SLP261 T02110117
PAWS 192156Z AUTO 19007KT 150V230 10SM CLR 20/11 A3026 RMK AO2 SLP262 T02000111
PAWS 192056Z AUTO VRB05KT 10SM CLR 20/11 A3027 RMK AO2 SLP263 T02000111 57002
PAWS 191956Z AUTO 00000KT 10SM CLR 19/10 A3027 RMK AO2 SLP263 T01890100